createdAt,value
2023-06-19T00:05:00.533Z,6.55
2023-06-19T00:10:03.677Z,6.85
2023-06-19T00:15:07.575Z,4.13
2023-06-19T00:20:10.692Z,3.95
2023-06-19T00:25:13.170Z,4.10
2023-06-19T00:30:17.145Z,5.65
2023-06-19T00:35:22.200Z,7.95
2023-06-19T00:40:29.322Z,4.50
2023-06-19T00:45:32.408Z,4.25
2023-06-19T00:50:38.575Z,7.32
2023-06-19T00:55:41.542Z,2.42
2023-06-19T01:00:56.072Z,6.35
2023-06-19T01:06:12.969Z,7.45
2023-06-19T01:11:26.865Z,5.13
2023-06-19T01:16:31.652Z,3.33
2023-06-19T01:21:35.466Z,5.00
2023-06-19T01:26:40.624Z,5.03
2023-06-19T01:31:52.070Z,2.40
2023-06-19T01:36:58.387Z,9.07
2023-06-19T01:42:01.800Z,8.40
2023-06-19T01:47:15.351Z,10.13
2023-06-19T01:52:19.326Z,53.22
2023-06-19T01:57:22.779Z,76.57
2023-06-19T02:02:26.360Z,45.58
2023-06-19T02:07:28.788Z,36.15
2023-06-19T02:12:31.764Z,28.38
2023-06-19T02:17:34.750Z,14.88
2023-06-19T02:22:40.728Z,8.60
2023-06-19T02:27:43.733Z,5.50
2023-06-19T02:32:46.738Z,4.60
2023-06-19T02:37:49.265Z,4.50
2023-06-19T02:42:51.823Z,11.50
2023-06-19T02:47:54.624Z,7.97
2023-06-19T02:52:57.332Z,6.95
2023-06-19T02:57:59.833Z,3.13
2023-06-19T03:03:02.175Z,4.60
2023-06-19T03:08:04.972Z,4.30
2023-06-19T03:13:07.833Z,4.00
2023-06-19T03:18:12.220Z,4.78
2023-06-19T03:23:16.536Z,4.20
2023-06-19T03:28:18.856Z,3.67
2023-06-19T03:33:21.978Z,8.60
2023-06-19T03:38:25.228Z,4.57
2023-06-19T03:43:28.987Z,5.70
2023-06-19T03:48:32.795Z,6.75
2023-06-19T03:53:37.777Z,7.47
2023-06-19T03:58:40.131Z,8.68
2023-06-19T04:03:42.639Z,5.03
2023-06-19T04:08:46.310Z,5.70
2023-06-19T04:13:50.697Z,4.43
2023-06-19T04:18:53.806Z,4.75
2023-06-19T04:23:57.278Z,5.07
2023-06-19T04:29:02.407Z,6.05
2023-06-19T04:34:06.575Z,9.40
2023-06-19T04:39:10.137Z,4.25
2023-06-19T04:49:15.939Z,8.00
2023-06-19T04:54:18.863Z,7.20
2023-06-19T04:59:23.738Z,18.88
2023-06-19T05:04:26.933Z,9.43
2023-06-19T05:09:31.278Z,6.55
2023-06-19T05:14:34.051Z,27.10
2023-06-19T05:19:36.794Z,12.48
2023-06-19T05:24:39.216Z,8.23
2023-06-19T05:29:42.584Z,7.38
2023-06-19T05:34:45.776Z,6.97
2023-06-19T05:39:48.652Z,6.28
2023-06-19T05:44:54.379Z,9.15
2023-06-19T05:50:01.177Z,5.38
2023-06-19T05:55:06.606Z,11.23
2023-06-19T06:00:16.094Z,6.70
2023-06-19T06:05:21.963Z,6.80
2023-06-19T06:10:27.327Z,7.45
2023-06-19T06:15:30.221Z,7.50
2023-06-19T06:20:33.652Z,9.77
2023-06-19T06:25:36.991Z,5.95
2023-06-19T06:30:40.439Z,13.95
2023-06-19T06:35:46.137Z,7.55
2023-06-19T06:40:49.082Z,9.55
2023-06-19T06:45:53.878Z,4.93
2023-06-19T06:51:02.477Z,16.25
2023-06-19T06:56:07.352Z,7.38
2023-06-19T07:01:15.648Z,4.57
2023-06-19T07:06:21.220Z,7.80
2023-06-19T07:11:24.812Z,11.75
2023-06-19T07:16:27.500Z,5.88
2023-06-19T07:21:31.284Z,3.35
2023-06-19T07:26:34.431Z,8.88
2023-06-19T07:31:39.040Z,13.20
2023-06-19T07:36:43.112Z,3.63
2023-06-19T07:41:52.436Z,8.23
2023-06-19T07:47:06.779Z,4.75
2023-06-19T07:58:08.100Z,6.30
2023-06-19T08:03:11.070Z,4.53
2023-06-19T08:08:18.776Z,5.38
2023-06-19T08:13:28.437Z,5.88
2023-06-19T08:18:31.957Z,8.80
2023-06-19T08:28:42.662Z,5.78
2023-06-19T08:33:57.944Z,5.13
2023-06-19T08:39:10.799Z,6.72
2023-06-19T08:44:19.344Z,8.48
2023-06-19T08:49:24.565Z,7.25
2023-06-19T08:54:27.208Z,6.90
2023-06-19T08:59:33.854Z,3.40
2023-06-19T09:04:37.983Z,4.72
2023-06-19T09:10:07.666Z,10.48
2023-06-19T09:15:15.800Z,6.28
2023-06-19T09:20:29.764Z,5.63
2023-06-19T09:25:32.990Z,3.65
2023-06-19T09:30:36.190Z,9.85
2023-06-19T09:35:38.651Z,5.75
2023-06-19T09:40:45.093Z,10.23
2023-06-19T09:45:58.649Z,5.07
2023-06-19T09:51:15.213Z,7.15
2023-06-19T09:56:23.697Z,4.00
2023-06-19T10:01:31.041Z,4.85
2023-06-19T10:06:35.194Z,5.75
2023-06-19T10:11:56.482Z,8.85
2023-06-19T10:17:11.339Z,4.47
2023-06-19T10:22:25.110Z,8.38
2023-06-19T10:27:28.250Z,5.07
2023-06-19T10:32:31.098Z,6.85
2023-06-19T10:37:35.034Z,8.93
2023-06-19T10:42:40.003Z,6.70
2023-06-19T10:47:42.755Z,11.48
2023-06-19T10:52:47.118Z,7.10
2023-06-19T10:57:51.217Z,6.10
2023-06-19T11:02:55.486Z,3.15
2023-06-19T11:08:00.579Z,6.40
2023-06-19T11:13:04.676Z,6.00
2023-06-19T11:18:08.326Z,8.20
2023-06-19T11:23:13.735Z,6.65
2023-06-19T11:28:23.862Z,15.40
2023-06-19T11:33:29.645Z,4.50
2023-06-19T11:38:32.819Z,7.35
2023-06-19T11:43:37.429Z,7.65
2023-06-19T11:48:53.179Z,3.45
2023-06-19T11:54:12.334Z,6.10
2023-06-19T11:59:16.319Z,6.15
2023-06-19T12:04:20.137Z,7.75
2023-06-19T12:09:23.842Z,4.07
2023-06-19T12:14:27.344Z,6.78
2023-06-19T12:19:30.774Z,7.85
2023-06-19T12:24:35.551Z,3.50
2023-06-19T12:29:39.192Z,5.13
2023-06-19T12:34:41.912Z,4.90
2023-06-19T12:39:47.086Z,9.77
2023-06-19T12:44:52.033Z,5.97
2023-06-19T12:49:54.815Z,4.18
2023-06-19T12:55:01.065Z,4.68
2023-06-19T13:00:10.687Z,9.57
2023-06-19T13:05:14.397Z,4.80
2023-06-19T13:10:17.043Z,4.13
2023-06-19T13:15:20.469Z,4.70
2023-06-19T13:20:23.512Z,6.15
2023-06-19T13:25:27.960Z,6.10
2023-06-19T13:30:32.397Z,5.00
2023-06-19T13:35:35.862Z,5.30
2023-06-19T13:40:38.451Z,14.13
2023-06-19T13:45:44.327Z,11.88
2023-06-19T13:50:49.358Z,6.53
2023-06-19T13:55:53.142Z,4.82
2023-06-19T14:00:58.810Z,5.82
2023-06-19T14:06:02.190Z,5.53
2023-06-19T14:11:06.875Z,6.97
2023-06-19T14:16:09.490Z,8.82
2023-06-19T14:21:13.175Z,10.82
2023-06-19T14:26:16.707Z,5.38
2023-06-19T14:31:19.068Z,6.68
2023-06-19T14:36:22.136Z,7.38
2023-06-19T14:41:25.738Z,5.72
2023-06-19T14:51:35.205Z,8.43
2023-06-19T14:56:38.882Z,6.70
2023-06-19T15:01:41.713Z,5.40
2023-06-19T15:06:45.266Z,11.30
2023-06-19T15:11:48.772Z,9.63
2023-06-19T15:16:52.054Z,7.97
2023-06-19T15:21:55.016Z,7.13
2023-06-19T15:26:59.703Z,11.02
2023-06-19T15:32:03.746Z,14.80
2023-06-19T15:37:06.223Z,7.82
2023-06-19T15:42:08.879Z,6.45
2023-06-19T15:47:11.922Z,7.22
2023-06-19T15:52:14.749Z,5.55
2023-06-19T15:57:17.393Z,10.30
2023-06-19T16:02:22.327Z,12.48
2023-06-19T16:07:24.790Z,12.23
2023-06-19T16:12:27.645Z,5.70
2023-06-19T16:17:30.673Z,4.57
2023-06-19T16:22:35.905Z,6.45
2023-06-19T16:27:48.907Z,36.47
2023-06-19T16:32:55.740Z,11.80
2023-06-19T16:37:58.384Z,8.15
2023-06-19T16:43:00.897Z,12.32
2023-06-19T16:48:03.532Z,7.88
2023-06-19T16:53:07.892Z,6.60
2023-06-19T16:58:10.349Z,8.98
2023-06-19T17:03:14.308Z,11.18
2023-06-19T17:08:18.107Z,18.15
2023-06-19T17:13:21.700Z,10.52
2023-06-19T17:18:24.536Z,10.65
2023-06-19T17:23:26.924Z,14.00
2023-06-19T17:28:29.369Z,13.57
2023-06-19T17:33:32.234Z,17.42
2023-06-19T17:38:34.912Z,17.63
2023-06-19T17:43:37.267Z,23.15
2023-06-19T17:48:39.689Z,24.98
2023-06-19T17:53:42.273Z,20.23
2023-06-19T17:58:45.120Z,12.55
2023-06-19T18:03:47.510Z,11.07
2023-06-19T18:08:50.564Z,12.35
2023-06-19T18:13:53.158Z,12.07
2023-06-19T18:18:55.643Z,10.15
2023-06-19T18:23:58.183Z,13.45
2023-06-19T18:29:01.317Z,17.15
2023-06-19T18:34:04.663Z,18.95
2023-06-19T18:39:07.007Z,15.35
2023-06-19T18:44:09.688Z,9.73
2023-06-19T18:49:12.392Z,7.80
2023-06-19T18:54:14.912Z,9.20
2023-06-19T18:59:17.369Z,6.50
2023-06-19T19:04:20.224Z,8.15
2023-06-19T19:09:22.594Z,6.82
2023-06-19T19:14:25.113Z,8.07
2023-06-19T19:19:28.669Z,12.85
2023-06-19T19:24:31.058Z,6.90
2023-06-19T19:29:33.591Z,7.65
2023-06-19T19:34:36.061Z,9.52
2023-06-19T19:39:38.536Z,7.28
2023-06-19T19:44:41.673Z,13.25
2023-06-19T19:49:44.758Z,11.93
2023-06-19T19:54:48.607Z,8.48
2023-06-19T19:59:51.542Z,16.08
2023-06-19T20:04:54.486Z,7.32
2023-06-19T20:09:58.727Z,8.90
2023-06-19T20:15:03.045Z,7.95
2023-06-19T20:20:09.802Z,9.13
2023-06-19T20:25:12.216Z,6.53
2023-06-19T20:30:15.704Z,6.78
2023-06-19T20:35:18.286Z,6.47
2023-06-19T20:40:20.602Z,9.65
2023-06-19T20:45:27.985Z,7.13
2023-06-19T20:50:30.853Z,12.00
2023-06-19T20:55:33.317Z,20.70
2023-06-19T21:00:36.315Z,16.40
2023-06-19T21:05:38.825Z,12.35
2023-06-19T21:10:44.559Z,10.15
2023-06-19T21:15:47.498Z,13.18
2023-06-19T21:20:51.686Z,14.65
2023-06-19T21:25:54.003Z,10.32
2023-06-19T21:30:56.514Z,13.68
2023-06-19T21:35:59.604Z,11.18
2023-06-19T21:41:02.978Z,13.68
2023-06-19T21:46:05.397Z,13.93
2023-06-19T21:51:09.853Z,12.82
2023-06-19T21:56:12.204Z,12.98
2023-06-19T22:01:15.011Z,11.05
2023-06-19T22:06:17.405Z,15.88
2023-06-19T22:11:20.404Z,12.23
2023-06-19T22:16:24.355Z,14.77
2023-06-19T22:21:27.406Z,10.93
2023-06-19T22:26:38.258Z,13.55
2023-06-19T22:31:41.457Z,10.88
2023-06-19T22:36:44.053Z,15.20
2023-06-19T22:41:46.520Z,15.05
2023-06-19T22:46:49.049Z,11.82
2023-06-19T22:51:51.509Z,11.52
2023-06-19T22:56:54.414Z,17.77
2023-06-19T23:01:56.713Z,15.43
2023-06-19T23:07:02.651Z,12.90
2023-06-19T23:12:05.954Z,9.93
2023-06-19T23:17:08.401Z,11.77
2023-06-19T23:22:11.284Z,12.50
2023-06-19T23:27:13.635Z,9.45
2023-06-19T23:32:16.404Z,11.13
2023-06-19T23:37:19.460Z,13.40
2023-06-19T23:42:22.286Z,16.98
2023-06-19T23:47:25.198Z,9.60
2023-06-19T23:52:38.778Z,12.63
2023-06-19T23:57:46.877Z,9.98
